Etusivu
METAR-TAF:

METAR-TAF

Lentoasemat :

Chisholm-Hibbing Airport

Hibbing, Minnesota, Yhdysvallat

Leveyspiiri: 47-23-12N, Pituuspiiri: 092-50-20W, korkeus merenpinnasta: 412 m

Tämänhetkinen sää

Tämä raportti tehtiin 1 tunti ja 2 minuuttia sitten, kello 02.53 UTC
tyyntä
Lämpötila -5°C
Kosteus 58%
Ilmanpaine 1027 hPa
Näkyvyys: 16.1 km
selkeää

METAR: KHIB 260253Z AUTO 00000KT 10SM CLR M05/M12 A3033 RMK AO2 SLP296 T10501122 53007

Aika: 22:55 (03:55 UTC)

Sääennuste

Tämä raportti tehtiin 4 tuntia ja 35 minuuttia sitten, kello 23.20 UTC
Ennuste voimassa 26. päivästä klo 00 UTC - 26. päivään klo 24 UTC
Tuuli 8 kn luoteesta
Näkyvyys: 10 km
selkeää
From 26. päivästä klo 1900 UTC
Tuuli 9 kn etelästä/lounaasta
Näkyvyys: 10 km
Hajonneita pilviä 7000 ft:n korkeudessa

TAF: KHIB 252320Z 2600/2624 32008KT P6SM SKC FM261900 21009KT P6SM BKN070

Säähavainnot ja -ennusteet yli 4000 lentoasemalta (METAR- ja TAF-raportit).

Käytössä olevat sääasemat on merkitty karttaan keltaisilla ja punaisilla pisteillä.

Aseta hiiri pisteen päälle nähdäksesi sääaseman nimen.

Klikkaa sitten nähdäksesi säähavainnot ja -ennusteet.

Kartan vaihtaminen: klikkaa mustalla rastilla varustettuja vihreitä pisteitä, niin voit zoomata sisään; viivalla varustettua vihreää pistettä, niin voit zoomata ulos tai vihreitä nuolia, niin pääset viereisille kartoille.


METAR-TAF: